sensor_id;sensor_type;location;lat;lon;timestamp;temperature;humidity
3648;DHT22;1840;48.892;15.312;2023-02-12T00:00:57;2.30;99.90
3648;DHT22;1840;48.892;15.312;2023-02-12T00:03:25;2.10;99.90
3648;DHT22;1840;48.892;15.312;2023-02-12T00:05:53;2.20;99.90
3648;DHT22;1840;48.892;15.312;2023-02-12T00:08:21;2.30;99.90
3648;DHT22;1840;48.892;15.312;2023-02-12T00:10:49;2.40;99.90
3648;DHT22;1840;48.892;15.312;2023-02-12T00:13:17;2.30;99.90
3648;DHT22;1840;48.892;15.312;2023-02-12T00:15:46;2.20;99.90
3648;DHT22;1840;48.892;15.312;2023-02-12T00:18:14;2.40;99.90
3648;DHT22;1840;48.892;15.312;2023-02-12T00:20:42;2.20;99.90
3648;DHT22;1840;48.892;15.312;2023-02-12T00:23:10;2.30;99.90
3648;DHT22;1840;48.892;15.312;2023-02-12T00:25:40;2.30;99.90
3648;DHT22;1840;48.892;15.312;2023-02-12T00:28:08;2.30;99.90
3648;DHT22;1840;48.892;15.312;2023-02-12T00:30:36;2.20;99.90
3648;DHT22;1840;48.892;15.312;2023-02-12T00:33:05;2.30;99.90
3648;DHT22;1840;48.892;15.312;2023-02-12T00:35:33;2.30;99.90
3648;DHT22;1840;48.892;15.312;2023-02-12T00:38:01;2.40;99.90
3648;DHT22;1840;48.892;15.312;2023-02-12T00:40:31;2.40;99.90
3648;DHT22;1840;48.892;15.312;2023-02-12T00:42:59;2.30;99.90
3648;DHT22;1840;48.892;15.312;2023-02-12T00:45:27;2.20;99.90
3648;DHT22;1840;48.892;15.312;2023-02-12T00:47:55;2.20;99.90
3648;DHT22;1840;48.892;15.312;2023-02-12T00:50:24;2.20;99.90
3648;DHT22;1840;48.892;15.312;2023-02-12T00:52:55;2.20;99.90
3648;DHT22;1840;48.892;15.312;2023-02-12T00:55:23;2.30;99.90
3648;DHT22;1840;48.892;15.312;2023-02-12T00:57:51;2.20;99.90
3648;DHT22;1840;48.892;15.312;2023-02-12T01:00:19;2.10;99.90
3648;DHT22;1840;48.892;15.312;2023-02-12T01:02:47;2.20;99.90
3648;DHT22;1840;48.892;15.312;2023-02-12T01:05:16;2.20;99.90
3648;DHT22;1840;48.892;15.312;2023-02-12T01:07:49;2.20;99.90
3648;DHT22;1840;48.892;15.312;2023-02-12T01:10:18;2.30;99.90
3648;DHT22;1840;48.892;15.312;2023-02-12T01:12:48;2.40;99.90
3648;DHT22;1840;48.892;15.312;2023-02-12T01:15:16;2.40;99.90
3648;DHT22;1840;48.892;15.312;2023-02-12T01:17:45;2.50;99.90
3648;DHT22;1840;48.892;15.312;2023-02-12T01:20:17;2.50;99.90
3648;DHT22;1840;48.892;15.312;2023-02-12T01:22:46;2.50;99.90
3648;DHT22;1840;48.892;15.312;2023-02-12T01:25:15;2.40;99.90
3648;DHT22;1840;48.892;15.312;2023-02-12T01:27:46;2.40;99.90
3648;DHT22;1840;48.892;15.312;2023-02-12T01:30:15;2.30;99.90
3648;DHT22;1840;48.892;15.312;2023-02-12T01:32:43;2.30;99.90
3648;DHT22;1840;48.892;15.312;2023-02-12T01:35:11;2.10;99.90
3648;DHT22;1840;48.892;15.312;2023-02-12T01:37:38;2.00;99.90
3648;DHT22;1840;48.892;15.312;2023-02-12T01:40:08;2.10;99.90
3648;DHT22;1840;48.892;15.312;2023-02-12T01:42:37;2.00;99.90
3648;DHT22;1840;48.892;15.312;2023-02-12T01:45:37;1.90;99.90
3648;DHT22;1840;48.892;15.312;2023-02-12T01:48:11;1.80;99.90
3648;DHT22;1840;48.892;15.312;2023-02-12T01:50:42;2.00;99.90
3648;DHT22;1840;48.892;15.312;2023-02-12T01:53:10;2.10;99.90
3648;DHT22;1840;48.892;15.312;2023-02-12T01:55:49;1.90;99.90
3648;DHT22;1840;48.892;15.312;2023-02-12T01:58:20;2.00;99.90
3648;DHT22;1840;48.892;15.312;2023-02-12T02:00:49;2.00;99.90
3648;DHT22;1840;48.892;15.312;2023-02-12T02:03:17;2.10;99.90
3648;DHT22;1840;48.892;15.312;2023-02-12T02:05:51;2.00;99.90
3648;DHT22;1840;48.892;15.312;2023-02-12T02:08:21;2.10;99.90
3648;DHT22;1840;48.892;15.312;2023-02-12T02:10:49;2.20;99.90
3648;DHT22;1840;48.892;15.312;2023-02-12T02:13:19;2.20;99.90
3648;DHT22;1840;48.892;15.312;2023-02-12T02:16:11;2.00;99.90
3648;DHT22;1840;48.892;15.312;2023-02-12T02:18:45;2.00;99.90
3648;DHT22;1840;48.892;15.312;2023-02-12T02:21:34;2.00;99.90
3648;DHT22;1840;48.892;15.312;2023-02-12T02:24:20;2.10;99.90
3648;DHT22;1840;48.892;15.312;2023-02-12T02:27:17;2.00;99.90
3648;DHT22;1840;48.892;15.312;2023-02-12T02:33:19;2.30;99.90
3648;DHT22;1840;48.892;15.312;2023-02-12T02:35:53;2.30;99.90
3648;DHT22;1840;48.892;15.312;2023-02-12T02:38:27;2.30;99.90
3648;DHT22;1840;48.892;15.312;2023-02-12T02:41:02;2.40;99.90
3648;DHT22;1840;48.892;15.312;2023-02-12T02:43:34;2.40;99.90
3648;DHT22;1840;48.892;15.312;2023-02-12T02:46:06;2.50;99.90
3648;DHT22;1840;48.892;15.312;2023-02-12T02:48:42;2.60;99.90
3648;DHT22;1840;48.892;15.312;2023-02-12T02:51:13;2.70;99.90
3648;DHT22;1840;48.892;15.312;2023-02-12T02:53:44;2.70;99.90
3648;DHT22;1840;48.892;15.312;2023-02-12T02:56:16;2.60;99.90
3648;DHT22;1840;48.892;15.312;2023-02-12T02:58:49;2.20;99.90
3648;DHT22;1840;48.892;15.312;2023-02-12T03:01:22;2.40;99.90
3648;DHT22;1840;48.892;15.312;2023-02-12T03:03:57;2.30;99.90
3648;DHT22;1840;48.892;15.312;2023-02-12T03:06:31;2.20;99.90
3648;DHT22;1840;48.892;15.312;2023-02-12T03:09:04;2.30;99.90
3648;DHT22;1840;48.892;15.312;2023-02-12T03:11:34;2.40;99.90
3648;DHT22;1840;48.892;15.312;2023-02-12T03:14:07;2.10;99.90
3648;DHT22;1840;48.892;15.312;2023-02-12T03:16:39;2.00;99.90
3648;DHT22;1840;48.892;15.312;2023-02-12T03:19:15;2.30;99.90
3648;DHT22;1840;48.892;15.312;2023-02-12T03:21:48;2.50;99.90
3648;DHT22;1840;48.892;15.312;2023-02-12T03:24:20;2.50;99.90
3648;DHT22;1840;48.892;15.312;2023-02-12T03:26:54;2.60;99.90
3648;DHT22;1840;48.892;15.312;2023-02-12T03:29:25;2.60;99.90
3648;DHT22;1840;48.892;15.312;2023-02-12T03:32:03;2.60;99.90
3648;DHT22;1840;48.892;15.312;2023-02-12T03:34:45;2.70;99.90
3648;DHT22;1840;48.892;15.312;2023-02-12T03:37:18;2.70;99.90
3648;DHT22;1840;48.892;15.312;2023-02-12T03:39:55;2.50;99.90
3648;DHT22;1840;48.892;15.312;2023-02-12T03:42:32;2.50;99.90
3648;DHT22;1840;48.892;15.312;2023-02-12T03:45:06;2.50;99.90
3648;DHT22;1840;48.892;15.312;2023-02-12T03:47:41;2.50;99.90
3648;DHT22;1840;48.892;15.312;2023-02-12T03:50:15;2.30;99.90
3648;DHT22;1840;48.892;15.312;2023-02-12T03:52:45;2.50;99.90
3648;DHT22;1840;48.892;15.312;2023-02-12T03:55:15;2.40;99.90
3648;DHT22;1840;48.892;15.312;2023-02-12T03:57:47;2.40;99.90
3648;DHT22;1840;48.892;15.312;2023-02-12T04:00:18;2.30;99.90
3648;DHT22;1840;48.892;15.312;2023-02-12T04:02:47;2.20;99.90
3648;DHT22;1840;48.892;15.312;2023-02-12T04:05:20;2.20;99.90
3648;DHT22;1840;48.892;15.312;2023-02-12T04:07:49;2.10;99.90
3648;DHT22;1840;48.892;15.312;2023-02-12T04:10:18;2.10;99.90
3648;DHT22;1840;48.892;15.312;2023-02-12T04:12:54;2.20;99.90
3648;DHT22;1840;48.892;15.312;2023-02-12T04:15:36;2.20;99.90
3648;DHT22;1840;48.892;15.312;2023-02-12T04:18:09;2.20;99.90
3648;DHT22;1840;48.892;15.312;2023-02-12T04:20:50;2.30;99.90
3648;DHT22;1840;48.892;15.312;2023-02-12T04:23:39;2.30;99.90
3648;DHT22;1840;48.892;15.312;2023-02-12T04:26:20;2.30;99.90
3648;DHT22;1840;48.892;15.312;2023-02-12T04:28:56;2.30;99.90
3648;DHT22;1840;48.892;15.312;2023-02-12T04:31:29;2.20;99.90
3648;DHT22;1840;48.892;15.312;2023-02-12T04:34:04;2.30;99.90
3648;DHT22;1840;48.892;15.312;2023-02-12T04:36:41;2.30;99.90
3648;DHT22;1840;48.892;15.312;2023-02-12T04:39:16;2.20;99.90
3648;DHT22;1840;48.892;15.312;2023-02-12T04:41:45;2.20;99.90
3648;DHT22;1840;48.892;15.312;2023-02-12T04:44:18;2.30;99.90
3648;DHT22;1840;48.892;15.312;2023-02-12T04:46:48;2.30;99.90
3648;DHT22;1840;48.892;15.312;2023-02-12T04:49:18;2.20;99.90
3648;DHT22;1840;48.892;15.312;2023-02-12T04:51:49;2.10;99.90
3648;DHT22;1840;48.892;15.312;2023-02-12T04:54:18;2.10;99.90
3648;DHT22;1840;48.892;15.312;2023-02-12T04:56:47;2.00;99.90
3648;DHT22;1840;48.892;15.312;2023-02-12T04:59:15;2.10;99.90
3648;DHT22;1840;48.892;15.312;2023-02-12T05:01:44;2.10;99.90
3648;DHT22;1840;48.892;15.312;2023-02-12T05:04:14;2.20;99.90
3648;DHT22;1840;48.892;15.312;2023-02-12T05:06:43;2.10;99.90
3648;DHT22;1840;48.892;15.312;2023-02-12T05:09:15;2.00;99.90
3648;DHT22;1840;48.892;15.312;2023-02-12T05:11:43;1.90;99.90
3648;DHT22;1840;48.892;15.312;2023-02-12T05:14:11;1.70;99.90
3648;DHT22;1840;48.892;15.312;2023-02-12T05:16:40;1.60;99.90
3648;DHT22;1840;48.892;15.312;2023-02-12T05:19:08;1.70;99.90
3648;DHT22;1840;48.892;15.312;2023-02-12T05:21:36;1.60;99.90
3648;DHT22;1840;48.892;15.312;2023-02-12T05:24:05;1.70;99.90
3648;DHT22;1840;48.892;15.312;2023-02-12T05:26:35;1.70;99.90
3648;DHT22;1840;48.892;15.312;2023-02-12T05:29:03;1.80;99.90
3648;DHT22;1840;48.892;15.312;2023-02-12T05:31:31;1.90;99.90
3648;DHT22;1840;48.892;15.312;2023-02-12T05:33:59;2.10;99.90
3648;DHT22;1840;48.892;15.312;2023-02-12T05:36:27;2.00;99.90
3648;DHT22;1840;48.892;15.312;2023-02-12T05:38:57;2.00;99.90
3648;DHT22;1840;48.892;15.312;2023-02-12T05:41:26;2.00;99.90
3648;DHT22;1840;48.892;15.312;2023-02-12T05:43:55;2.10;99.90
3648;DHT22;1840;48.892;15.312;2023-02-12T05:46:23;1.80;99.90
3648;DHT22;1840;48.892;15.312;2023-02-12T05:48:52;1.70;99.90
3648;DHT22;1840;48.892;15.312;2023-02-12T05:51:22;1.70;99.90
3648;DHT22;1840;48.892;15.312;2023-02-12T05:53:52;1.80;99.90
3648;DHT22;1840;48.892;15.312;2023-02-12T05:56:24;1.80;99.90
3648;DHT22;1840;48.892;15.312;2023-02-12T05:58:56;1.90;99.90
3648;DHT22;1840;48.892;15.312;2023-02-12T06:01:27;2.00;99.90
3648;DHT22;1840;48.892;15.312;2023-02-12T06:03:55;1.90;99.90
3648;DHT22;1840;48.892;15.312;2023-02-12T06:06:24;1.70;99.90
3648;DHT22;1840;48.892;15.312;2023-02-12T06:08:52;1.70;99.90
3648;DHT22;1840;48.892;15.312;2023-02-12T06:11:21;1.80;99.90
3648;DHT22;1840;48.892;15.312;2023-02-12T06:13:49;1.70;99.90
3648;DHT22;1840;48.892;15.312;2023-02-12T06:16:21;1.70;99.90
3648;DHT22;1840;48.892;15.312;2023-02-12T06:18:49;1.80;99.90
3648;DHT22;1840;48.892;15.312;2023-02-12T06:21:19;1.80;99.90
3648;DHT22;1840;48.892;15.312;2023-02-12T06:23:48;1.80;99.90
3648;DHT22;1840;48.892;15.312;2023-02-12T06:26:16;1.80;99.90
3648;DHT22;1840;48.892;15.312;2023-02-12T06:28:44;1.80;99.90
3648;DHT22;1840;48.892;15.312;2023-02-12T06:31:19;1.80;99.90
3648;DHT22;1840;48.892;15.312;2023-02-12T06:33:47;1.90;99.90
3648;DHT22;1840;48.892;15.312;2023-02-12T06:36:16;1.70;99.90
3648;DHT22;1840;48.892;15.312;2023-02-12T06:38:45;1.80;99.90
3648;DHT22;1840;48.892;15.312;2023-02-12T06:41:13;1.90;99.90
3648;DHT22;1840;48.892;15.312;2023-02-12T06:43:41;1.70;99.90
3648;DHT22;1840;48.892;15.312;2023-02-12T06:46:10;1.70;99.90
3648;DHT22;1840;48.892;15.312;2023-02-12T06:48:39;1.60;99.90
3648;DHT22;1840;48.892;15.312;2023-02-12T06:51:09;1.70;99.90
3648;DHT22;1840;48.892;15.312;2023-02-12T06:53:37;1.70;99.90
3648;DHT22;1840;48.892;15.312;2023-02-12T06:56:07;1.70;99.90
3648;DHT22;1840;48.892;15.312;2023-02-12T06:58:38;1.90;99.90
3648;DHT22;1840;48.892;15.312;2023-02-12T07:01:10;1.90;99.90
3648;DHT22;1840;48.892;15.312;2023-02-12T07:03:41;1.90;99.90
3648;DHT22;1840;48.892;15.312;2023-02-12T07:06:10;2.10;99.90
3648;DHT22;1840;48.892;15.312;2023-02-12T07:08:38;2.20;99.90
3648;DHT22;1840;48.892;15.312;2023-02-12T07:11:06;2.30;99.90
3648;DHT22;1840;48.892;15.312;2023-02-12T07:13:34;2.30;99.90
3648;DHT22;1840;48.892;15.312;2023-02-12T07:16:04;2.30;99.90
3648;DHT22;1840;48.892;15.312;2023-02-12T07:18:32;2.40;99.90
3648;DHT22;1840;48.892;15.312;2023-02-12T07:21:02;2.40;99.90
3648;DHT22;1840;48.892;15.312;2023-02-12T07:23:31;2.50;99.90
3648;DHT22;1840;48.892;15.312;2023-02-12T07:26:01;2.60;99.90
3648;DHT22;1840;48.892;15.312;2023-02-12T07:28:30;2.70;99.90
3648;DHT22;1840;48.892;15.312;2023-02-12T07:31:00;2.60;99.90
3648;DHT22;1840;48.892;15.312;2023-02-12T07:33:32;2.60;99.90
3648;DHT22;1840;48.892;15.312;2023-02-12T07:36:03;2.50;99.90
3648;DHT22;1840;48.892;15.312;2023-02-12T07:38:31;2.70;99.90
3648;DHT22;1840;48.892;15.312;2023-02-12T07:41:09;2.40;99.90
3648;DHT22;1840;48.892;15.312;2023-02-12T07:43:39;2.20;99.90
3648;DHT22;1840;48.892;15.312;2023-02-12T07:46:08;2.30;99.90
3648;DHT22;1840;48.892;15.312;2023-02-12T07:48:37;2.50;99.90
3648;DHT22;1840;48.892;15.312;2023-02-12T07:51:08;2.30;99.90
3648;DHT22;1840;48.892;15.312;2023-02-12T07:53:37;2.20;99.90
3648;DHT22;1840;48.892;15.312;2023-02-12T07:56:07;2.40;99.90
3648;DHT22;1840;48.892;15.312;2023-02-12T07:58:36;2.50;99.90
3648;DHT22;1840;48.892;15.312;2023-02-12T08:01:12;2.30;99.90
3648;DHT22;1840;48.892;15.312;2023-02-12T08:03:40;2.50;99.90
3648;DHT22;1840;48.892;15.312;2023-02-12T08:06:11;2.70;99.90
3648;DHT22;1840;48.892;15.312;2023-02-12T08:08:40;2.70;99.90
3648;DHT22;1840;48.892;15.312;2023-02-12T08:11:09;2.80;99.90
3648;DHT22;1840;48.892;15.312;2023-02-12T08:13:38;2.90;99.90
3648;DHT22;1840;48.892;15.312;2023-02-12T08:16:07;3.00;99.90
3648;DHT22;1840;48.892;15.312;2023-02-12T08:18:39;3.00;99.90
3648;DHT22;1840;48.892;15.312;2023-02-12T08:21:10;3.20;99.90
3648;DHT22;1840;48.892;15.312;2023-02-12T08:23:39;3.10;99.90
3648;DHT22;1840;48.892;15.312;2023-02-12T08:26:08;3.00;99.90
3648;DHT22;1840;48.892;15.312;2023-02-12T08:28:39;3.00;99.90
3648;DHT22;1840;48.892;15.312;2023-02-12T08:31:10;3.20;99.90
3648;DHT22;1840;48.892;15.312;2023-02-12T08:33:38;3.60;99.90
3648;DHT22;1840;48.892;15.312;2023-02-12T08:36:08;3.80;99.90
3648;DHT22;1840;48.892;15.312;2023-02-12T08:38:38;3.80;99.90
3648;DHT22;1840;48.892;15.312;2023-02-12T08:41:08;3.80;99.90
3648;DHT22;1840;48.892;15.312;2023-02-12T08:43:37;3.70;99.90
3648;DHT22;1840;48.892;15.312;2023-02-12T08:46:08;3.70;99.90
3648;DHT22;1840;48.892;15.312;2023-02-12T08:48:37;4.00;99.90
3648;DHT22;1840;48.892;15.312;2023-02-12T08:51:07;4.10;99.90
3648;DHT22;1840;48.892;15.312;2023-02-12T08:53:38;4.30;99.90
3648;DHT22;1840;48.892;15.312;2023-02-12T08:56:08;4.40;99.90
3648;DHT22;1840;48.892;15.312;2023-02-12T08:58:37;4.70;99.90
3648;DHT22;1840;48.892;15.312;2023-02-12T09:01:08;4.30;99.80
3648;DHT22;1840;48.892;15.312;2023-02-12T09:03:37;4.20;99.90
3648;DHT22;1840;48.892;15.312;2023-02-12T09:06:06;4.50;99.90
3648;DHT22;1840;48.892;15.312;2023-02-12T09:08:35;4.40;99.90
3648;DHT22;1840;48.892;15.312;2023-02-12T09:11:06;4.80;99.90
3648;DHT22;1840;48.892;15.312;2023-02-12T09:13:34;4.90;99.90
3648;DHT22;1840;48.892;15.312;2023-02-12T09:16:03;5.00;99.70
3648;DHT22;1840;48.892;15.312;2023-02-12T09:18:32;4.70;99.90
3648;DHT22;1840;48.892;15.312;2023-02-12T09:21:01;4.60;99.90
3648;DHT22;1840;48.892;15.312;2023-02-12T09:23:29;4.70;99.80
3648;DHT22;1840;48.892;15.312;2023-02-12T09:25:58;4.70;99.50
3648;DHT22;1840;48.892;15.312;2023-02-12T09:28:27;4.60;99.70
3648;DHT22;1840;48.892;15.312;2023-02-12T09:30:55;4.40;99.30
3648;DHT22;1840;48.892;15.312;2023-02-12T09:33:23;4.40;99.40
3648;DHT22;1840;48.892;15.312;2023-02-12T09:35:51;4.70;99.80
3648;DHT22;1840;48.892;15.312;2023-02-12T09:38:20;4.80;99.50
3648;DHT22;1840;48.892;15.312;2023-02-12T09:41:03;5.00;99.10
3648;DHT22;1840;48.892;15.312;2023-02-12T09:43:40;5.20;99.30
3648;DHT22;1840;48.892;15.312;2023-02-12T09:46:15;4.80;98.70
3648;DHT22;1840;48.892;15.312;2023-02-12T09:48:52;4.60;99.00
3648;DHT22;1840;48.892;15.312;2023-02-12T09:51:23;4.40;99.50
3648;DHT22;1840;48.892;15.312;2023-02-12T09:54:00;4.20;99.80
3648;DHT22;1840;48.892;15.312;2023-02-12T09:56:30;4.10;99.90
3648;DHT22;1840;48.892;15.312;2023-02-12T09:59:06;4.30;99.90
3648;DHT22;1840;48.892;15.312;2023-02-12T10:01:35;4.70;99.90
3648;DHT22;1840;48.892;15.312;2023-02-12T10:04:04;4.70;99.40
3648;DHT22;1840;48.892;15.312;2023-02-12T10:06:35;4.50;99.10
3648;DHT22;1840;48.892;15.312;2023-02-12T10:09:38;4.30;99.70
3648;DHT22;1840;48.892;15.312;2023-02-12T10:12:15;4.40;99.70
3648;DHT22;1840;48.892;15.312;2023-02-12T10:14:58;4.50;99.40
3648;DHT22;1840;48.892;15.312;2023-02-12T10:17:35;4.70;99.00
3648;DHT22;1840;48.892;15.312;2023-02-12T10:20:32;4.60;99.50
3648;DHT22;1840;48.892;15.312;2023-02-12T10:23:24;4.80;99.40
3648;DHT22;1840;48.892;15.312;2023-02-12T10:25:57;4.90;99.30
3648;DHT22;1840;48.892;15.312;2023-02-12T10:28:29;5.10;99.20
3648;DHT22;1840;48.892;15.312;2023-02-12T10:31:03;5.10;98.90
3648;DHT22;1840;48.892;15.312;2023-02-12T10:33:35;5.20;98.80
3648;DHT22;1840;48.892;15.312;2023-02-12T10:36:14;5.10;99.10
3648;DHT22;1840;48.892;15.312;2023-02-12T10:38:46;5.20;98.50
3648;DHT22;1840;48.892;15.312;2023-02-12T10:41:16;4.90;98.20
3648;DHT22;1840;48.892;15.312;2023-02-12T10:43:44;4.40;98.70
3648;DHT22;1840;48.892;15.312;2023-02-12T10:46:15;4.30;99.00
3648;DHT22;1840;48.892;15.312;2023-02-12T10:48:45;4.10;99.30
3648;DHT22;1840;48.892;15.312;2023-02-12T10:51:28;4.00;99.00
3648;DHT22;1840;48.892;15.312;2023-02-12T10:54:35;4.30;99.00
3648;DHT22;1840;48.892;15.312;2023-02-12T10:57:22;4.60;99.00
3648;DHT22;1840;48.892;15.312;2023-02-12T10:59:52;5.00;98.90
3648;DHT22;1840;48.892;15.312;2023-02-12T11:02:25;5.00;98.50
3648;DHT22;1840;48.892;15.312;2023-02-12T11:04:54;5.40;98.60
3648;DHT22;1840;48.892;15.312;2023-02-12T11:07:24;5.60;98.50
3648;DHT22;1840;48.892;15.312;2023-02-12T11:09:54;5.80;97.60
3648;DHT22;1840;48.892;15.312;2023-02-12T11:12:29;5.90;98.90
3648;DHT22;1840;48.892;15.312;2023-02-12T11:14:59;6.10;97.90
3648;DHT22;1840;48.892;15.312;2023-02-12T11:17:34;5.90;98.00
3648;DHT22;1840;48.892;15.312;2023-02-12T11:20:24;5.70;97.70
3648;DHT22;1840;48.892;15.312;2023-02-12T11:22:56;5.60;97.90
3648;DHT22;1840;48.892;15.312;2023-02-12T11:25:27;5.30;98.60
3648;DHT22;1840;48.892;15.312;2023-02-12T11:28:01;5.40;98.30
3648;DHT22;1840;48.892;15.312;2023-02-12T11:30:32;5.50;98.60
3648;DHT22;1840;48.892;15.312;2023-02-12T11:33:16;5.50;98.50
3648;DHT22;1840;48.892;15.312;2023-02-12T11:35:50;5.70;98.30
3648;DHT22;1840;48.892;15.312;2023-02-12T11:38:29;5.60;98.50
3648;DHT22;1840;48.892;15.312;2023-02-12T11:41:07;5.80;99.10
3648;DHT22;1840;48.892;15.312;2023-02-12T11:43:45;6.10;98.90
3648;DHT22;1840;48.892;15.312;2023-02-12T11:46:19;6.10;97.90
3648;DHT22;1840;48.892;15.312;2023-02-12T11:48:50;6.00;97.20
3648;DHT22;1840;48.892;15.312;2023-02-12T11:51:20;5.80;97.90
3648;DHT22;1840;48.892;15.312;2023-02-12T11:53:52;5.60;97.30
3648;DHT22;1840;48.892;15.312;2023-02-12T11:56:21;5.20;97.70
3648;DHT22;1840;48.892;15.312;2023-02-12T11:58:50;5.10;98.00
3648;DHT22;1840;48.892;15.312;2023-02-12T12:01:21;5.50;97.90
3648;DHT22;1840;48.892;15.312;2023-02-12T12:03:59;5.60;98.10
3648;DHT22;1840;48.892;15.312;2023-02-12T12:06:33;5.80;97.20
3648;DHT22;1840;48.892;15.312;2023-02-12T12:09:06;6.10;97.10
3648;DHT22;1840;48.892;15.312;2023-02-12T12:11:43;6.00;97.20
3648;DHT22;1840;48.892;15.312;2023-02-12T12:14:19;6.10;96.80
3648;DHT22;1840;48.892;15.312;2023-02-12T12:16:53;6.20;96.40
3648;DHT22;1840;48.892;15.312;2023-02-12T12:19:47;6.30;96.20
3648;DHT22;1840;48.892;15.312;2023-02-12T12:22:26;6.40;96.50
3648;DHT22;1840;48.892;15.312;2023-02-12T12:25:03;6.80;96.80
3648;DHT22;1840;48.892;15.312;2023-02-12T12:27:37;6.70;95.90
3648;DHT22;1840;48.892;15.312;2023-02-12T12:30:38;7.00;96.10
3648;DHT22;1840;48.892;15.312;2023-02-12T12:33:14;7.20;95.90
3648;DHT22;1840;48.892;15.312;2023-02-12T12:35:52;7.40;95.90
3648;DHT22;1840;48.892;15.312;2023-02-12T12:38:32;7.30;94.90
3648;DHT22;1840;48.892;15.312;2023-02-12T12:41:15;6.90;94.70
3648;DHT22;1840;48.892;15.312;2023-02-12T12:44:03;6.90;95.50
3648;DHT22;1840;48.892;15.312;2023-02-12T12:46:42;7.10;95.00
3648;DHT22;1840;48.892;15.312;2023-02-12T12:49:37;7.00;94.90
3648;DHT22;1840;48.892;15.312;2023-02-12T12:52:37;6.90;94.80
3648;DHT22;1840;48.892;15.312;2023-02-12T12:55:26;6.90;95.20
3648;DHT22;1840;48.892;15.312;2023-02-12T12:58:06;6.80;94.50
3648;DHT22;1840;48.892;15.312;2023-02-12T13:00:52;6.20;95.10
3648;DHT22;1840;48.892;15.312;2023-02-12T13:03:58;6.00;96.00
3648;DHT22;1840;48.892;15.312;2023-02-12T13:06:56;5.90;95.50
3648;DHT22;1840;48.892;15.312;2023-02-12T13:09:47;5.70;96.00
3648;DHT22;1840;48.892;15.312;2023-02-12T13:12:32;5.90;96.10
3648;DHT22;1840;48.892;15.312;2023-02-12T13:15:07;6.00;95.80
3648;DHT22;1840;48.892;15.312;2023-02-12T13:17:41;6.00;95.50
3648;DHT22;1840;48.892;15.312;2023-02-12T13:20:16;5.90;95.70
3648;DHT22;1840;48.892;15.312;2023-02-12T13:22:51;5.50;95.70
3648;DHT22;1840;48.892;15.312;2023-02-12T13:25:27;5.30;95.70
3648;DHT22;1840;48.892;15.312;2023-02-12T13:27:58;5.40;95.70
3648;DHT22;1840;48.892;15.312;2023-02-12T13:30:30;5.50;95.80
3648;DHT22;1840;48.892;15.312;2023-02-12T13:33:06;5.60;96.30
3648;DHT22;1840;48.892;15.312;2023-02-12T13:35:40;5.90;95.90
3648;DHT22;1840;48.892;15.312;2023-02-12T13:38:14;6.00;95.60
3648;DHT22;1840;48.892;15.312;2023-02-12T13:40:47;6.10;95.40
3648;DHT22;1840;48.892;15.312;2023-02-12T13:43:30;6.00;95.30
3648;DHT22;1840;48.892;15.312;2023-02-12T13:46:06;6.00;95.30
3648;DHT22;1840;48.892;15.312;2023-02-12T13:48:44;6.00;95.30
3648;DHT22;1840;48.892;15.312;2023-02-12T13:51:20;6.20;95.00
3648;DHT22;1840;48.892;15.312;2023-02-12T13:54:04;6.10;95.20
3648;DHT22;1840;48.892;15.312;2023-02-12T13:56:42;6.10;95.40
3648;DHT22;1840;48.892;15.312;2023-02-12T13:59:42;5.90;95.60
3648;DHT22;1840;48.892;15.312;2023-02-12T14:05:29;6.00;95.50
3648;DHT22;1840;48.892;15.312;2023-02-12T14:08:01;6.00;95.70
3648;DHT22;1840;48.892;15.312;2023-02-12T14:10:34;5.70;95.80
3648;DHT22;1840;48.892;15.312;2023-02-12T14:13:17;5.40;95.90
3648;DHT22;1840;48.892;15.312;2023-02-12T14:15:48;5.60;96.10
3648;DHT22;1840;48.892;15.312;2023-02-12T14:18:35;5.30;95.80
3648;DHT22;1840;48.892;15.312;2023-02-12T14:24:51;5.20;96.20
3648;DHT22;1840;48.892;15.312;2023-02-12T14:27:33;5.10;96.40
3648;DHT22;1840;48.892;15.312;2023-02-12T14:30:25;5.10;96.50
3648;DHT22;1840;48.892;15.312;2023-02-12T14:33:22;5.20;96.20
3648;DHT22;1840;48.892;15.312;2023-02-12T14:36:13;5.10;96.50
3648;DHT22;1840;48.892;15.312;2023-02-12T14:39:02;4.80;96.60
3648;DHT22;1840;48.892;15.312;2023-02-12T14:41:33;4.60;96.70
3648;DHT22;1840;48.892;15.312;2023-02-12T14:50:18;4.60;96.80
3648;DHT22;1840;48.892;15.312;2023-02-12T14:52:53;4.70;96.70
3648;DHT22;1840;48.892;15.312;2023-02-12T14:55:25;4.80;96.40
3648;DHT22;1840;48.892;15.312;2023-02-12T14:57:56;4.80;96.20
3648;DHT22;1840;48.892;15.312;2023-02-12T15:00:28;4.70;96.40
3648;DHT22;1840;48.892;15.312;2023-02-12T15:03:01;4.70;96.60
3648;DHT22;1840;48.892;15.312;2023-02-12T15:05:37;4.60;96.80
3648;DHT22;1840;48.892;15.312;2023-02-12T15:08:14;4.60;96.40
3648;DHT22;1840;48.892;15.312;2023-02-12T15:10:47;4.50;96.60
3648;DHT22;1840;48.892;15.312;2023-02-12T15:13:23;4.70;96.50
3648;DHT22;1840;48.892;15.312;2023-02-12T15:15:55;4.80;96.20
3648;DHT22;1840;48.892;15.312;2023-02-12T15:18:28;4.90;96.10
3648;DHT22;1840;48.892;15.312;2023-02-12T15:21:05;5.00;96.00
3648;DHT22;1840;48.892;15.312;2023-02-12T15:23:40;5.00;95.90
3648;DHT22;1840;48.892;15.312;2023-02-12T15:26:13;5.10;95.80
3648;DHT22;1840;48.892;15.312;2023-02-12T15:28:44;5.10;95.80
3648;DHT22;1840;48.892;15.312;2023-02-12T15:31:15;5.00;95.80
3648;DHT22;1840;48.892;15.312;2023-02-12T15:33:45;5.00;95.90
3648;DHT22;1840;48.892;15.312;2023-02-12T15:36:19;4.90;95.80
3648;DHT22;1840;48.892;15.312;2023-02-12T15:38:50;4.80;95.80
3648;DHT22;1840;48.892;15.312;2023-02-12T15:41:27;4.70;96.00
3648;DHT22;1840;48.892;15.312;2023-02-12T15:43:55;4.50;96.50
3648;DHT22;1840;48.892;15.312;2023-02-12T15:46:23;4.50;96.60
3648;DHT22;1840;48.892;15.312;2023-02-12T15:48:52;4.50;96.50
3648;DHT22;1840;48.892;15.312;2023-02-12T15:51:27;4.60;96.30
3648;DHT22;1840;48.892;15.312;2023-02-12T15:53:57;4.50;96.30
3648;DHT22;1840;48.892;15.312;2023-02-12T15:56:26;4.40;96.40
3648;DHT22;1840;48.892;15.312;2023-02-12T15:58:56;4.30;97.10
3648;DHT22;1840;48.892;15.312;2023-02-12T16:01:27;4.30;96.60
3648;DHT22;1840;48.892;15.312;2023-02-12T16:03:57;4.40;96.70
3648;DHT22;1840;48.892;15.312;2023-02-12T16:06:30;4.30;96.70
3648;DHT22;1840;48.892;15.312;2023-02-12T16:09:03;4.30;96.80
3648;DHT22;1840;48.892;15.312;2023-02-12T16:11:32;4.40;96.60
3648;DHT22;1840;48.892;15.312;2023-02-12T16:14:03;4.40;96.30
3648;DHT22;1840;48.892;15.312;2023-02-12T16:16:39;4.40;96.30
3648;DHT22;1840;48.892;15.312;2023-02-12T16:19:18;4.30;96.40
3648;DHT22;1840;48.892;15.312;2023-02-12T16:21:50;4.20;96.40
3648;DHT22;1840;48.892;15.312;2023-02-12T16:24:31;4.20;96.50
3648;DHT22;1840;48.892;15.312;2023-02-12T16:27:07;4.20;96.70
3648;DHT22;1840;48.892;15.312;2023-02-12T16:29:38;4.10;96.70
3648;DHT22;1840;48.892;15.312;2023-02-12T16:32:26;4.00;96.80
3648;DHT22;1840;48.892;15.312;2023-02-12T16:34:59;4.00;96.80
3648;DHT22;1840;48.892;15.312;2023-02-12T16:37:44;4.00;96.90
3648;DHT22;1840;48.892;15.312;2023-02-12T16:40:30;3.80;96.90
3648;DHT22;1840;48.892;15.312;2023-02-12T16:43:00;3.80;97.00
3648;DHT22;1840;48.892;15.312;2023-02-12T16:45:41;3.70;97.00
3648;DHT22;1840;48.892;15.312;2023-02-12T16:48:16;3.70;97.30
3648;DHT22;1840;48.892;15.312;2023-02-12T16:50:47;3.70;97.00
3648;DHT22;1840;48.892;15.312;2023-02-12T16:53:33;3.60;97.10
3648;DHT22;1840;48.892;15.312;2023-02-12T16:56:03;3.60;97.30
3648;DHT22;1840;48.892;15.312;2023-02-12T16:58:31;3.50;97.20